Time;durP1;ratioP1;P1;durP2;ratioP2;P2;SDS_P1;SDS_P2;PMS_P1;PMS_P2;Temp;Humidity;BMP_temperature;BMP_pressure;BME280_temperature;BME280_humidity;BME280_pressure;Samples;Min_cycle;Max_cycle;Signal;HPM_P1;HPM_P2
2022/08/04 00:00:05;;;;;;;8.50;7.60;;;;;;;18.97;95.48;99484.77;109260;1274;22457;-55
2022/08/04 00:02:45;;;;;;;8.30;7.50;;;;;;;18.97;95.48;99484.15;109241;1274;139443;-55
2022/08/04 00:05:35;;;;;;;8.10;7.30;;;;;;;18.98;95.44;99482.86;109186;1274;22284;-55
2022/08/04 00:08:11;;;;;;;9.60;7.50;;;;;;;18.97;95.52;99480.73;109175;1274;138984;-55
2022/08/04 00:10:39;;;;;;;8.20;6.60;;;;;;;18.97;95.50;99481.11;109308;1274;22548;-55
2022/08/04 00:13:05;;;;;;;9.50;7.70;;;;;;;18.97;95.47;99480.29;109188;1274;138304;-54
2022/08/04 00:15:33;;;;;;;9.10;7.00;;;;;;;18.96;95.54;99484.77;109162;1274;22450;-55
2022/08/04 00:18:03;;;;;;;7.90;7.20;;;;;;;18.97;95.53;99487.70;109230;1274;22494;-56
2022/08/04 00:20:32;;;;;;;7.90;7.10;;;;;;;18.97;95.40;99488.48;109201;1274;139606;-55
2022/08/04 00:23:00;;;;;;;7.60;6.80;;;;;;;18.96;95.30;99490.36;109281;1274;23269;-55
2022/08/04 00:25:27;;;;;;;7.80;7.10;;;;;;;18.94;95.15;99491.19;109194;1274;140429;-55
2022/08/04 00:27:54;;;;;;;8.30;7.30;;;;;;;18.93;95.05;99489.29;109284;1274;22466;-55
2022/08/04 00:30:20;;;;;;;8.20;7.30;;;;;;;18.92;94.88;99489.34;109322;1274;22533;-55
2022/08/04 00:32:47;;;;;;;9.90;7.50;;;;;;;18.90;94.75;99498.07;108992;1276;139475;-55
2022/08/04 00:35:14;;;;;;;9.40;8.40;;;;;;;18.87;94.77;99492.64;109198;1274;22604;-55
2022/08/04 00:37:44;;;;;;;10.10;7.90;;;;;;;18.86;94.86;99492.23;109171;1274;138184;-55
2022/08/04 00:40:30;;;;;;;13.90;7.50;;;;;;;18.86;94.96;99492.73;109262;1274;22653;-55
2022/08/04 00:43:14;;;;;;;10.50;7.40;;;;;;;18.86;95.01;99494.77;108942;1274;139896;-55
2022/08/04 00:46:02;;;;;;;9.70;7.90;;;;;;;18.87;94.94;99492.38;109013;1274;22441;-56
2022/08/04 00:48:46;;;;;;;9.70;7.30;;;;;;;18.87;95.07;99491.54;109304;1274;23299;-56
2022/08/04 00:51:40;;;;;;;8.40;7.60;;;;;;;18.89;95.05;99491.55;109145;1274;138204;-55
2022/08/04 00:54:11;;;;;;;11.70;8.30;;;;;;;18.90;94.92;99493.50;109303;1274;22463;-55
2022/08/04 00:57:19;;;;;;;11.80;8.60;;;;;;;18.91;94.78;99494.62;109186;1274;139573;-55
2022/08/04 01:00:03;;;;;;;11.90;8.60;;;;;;;18.92;94.65;99499.02;109256;1274;22468;-55
2022/08/04 01:02:58;;;;;;;9.20;8.30;;;;;;;18.91;94.64;99496.54;109183;1274;139536;-55
2022/08/04 01:05:41;;;;;;;9.40;8.50;;;;;;;18.92;94.50;99499.73;109300;1274;22576;-55
2022/08/04 01:08:32;;;;;;;11.70;9.10;;;;;;;18.93;94.57;99501.65;109186;1274;139665;-55
2022/08/04 01:11:22;;;;;;;11.10;9.90;;;;;;;18.92;94.61;99501.16;109265;1276;22510;-56
2022/08/04 01:13:58;;;;;;;9.20;8.10;;;;;;;18.91;94.74;99504.96;109189;1274;139542;-56
2022/08/04 01:16:25;;;;;;;16.60;9.80;;;;;;;18.89;94.83;99507.83;106931;1277;25794;-55
2022/08/04 01:19:04;;;;;;;13.70;10.20;;;;;;;18.89;94.94;99506.23;104883;1275;139963;-55
2022/08/04 01:21:50;;;;;;;12.70;10.60;;;;;;;18.88;95.08;99507.54;109295;1275;23244;-55
2022/08/04 01:24:37;;;;;;;13.20;10.40;;;;;;;18.87;95.23;99511.87;109292;1274;22433;-55
2022/08/04 01:27:08;;;;;;;13.40;12.00;;;;;;;18.83;95.45;99511.45;109081;1275;138584;-55
2022/08/04 01:29:54;;;;;;;12.90;11.60;;;;;;;18.81;95.72;99512.55;109183;1274;22523;-55
2022/08/04 01:32:35;;;;;;;13.40;12.00;;;;;;;18.79;95.81;99510.32;108973;1274;140108;-55
2022/08/04 01:35:20;;;;;;;14.00;11.40;;;;;;;18.79;96.01;99512.98;109299;1274;23286;-55
2022/08/04 01:38:18;;;;;;;15.50;11.70;;;;;;;18.78;96.36;99512.07;108998;1274;138434;-55
2022/08/04 01:40:52;;;;;;;13.20;11.80;;;;;;;18.78;96.47;99516.48;109150;1274;22546;-55
2022/08/04 01:43:20;;;;;;;16.60;11.80;;;;;;;18.78;96.58;99516.25;109110;1274;140515;-55
2022/08/04 01:45:54;;;;;;;13.50;12.10;;;;;;;18.77;96.65;99517.09;109292;1274;23419;-55
2022/08/04 01:48:23;;;;;;;13.90;12.50;;;;;;;18.76;96.77;99514.00;109284;1276;22609;-56
2022/08/04 01:51:06;;;;;;;15.80;12.30;;;;;;;18.77;96.88;99518.77;109145;1274;139489;-55
2022/08/04 01:53:38;;;;;;;13.60;12.20;;;;;;;18.78;96.98;99517.58;109070;1277;22708;-56
2022/08/04 01:56:07;;;;;;;13.10;11.50;;;;;;;18.77;97.05;99512.73;107576;1275;138889;-56
2022/08/04 01:58:35;;;;;;;15.20;12.50;;;;;;;18.79;97.15;99512.98;109282;1276;22477;-56
2022/08/04 02:01:07;;;;;;;17.20;12.20;;;;;;;18.79;97.33;99508.83;109037;1277;139179;-56
2022/08/04 02:03:37;;;;;;;13.40;12.00;;;;;;;18.80;97.21;99509.52;109142;1277;22560;-56
2022/08/04 02:06:45;;;;;;;12.90;11.70;;;;;;;18.82;97.27;99508.34;108722;1276;537580;-56
2022/08/04 02:10:57;;;;;;;17.00;14.00;;;;;;;18.83;97.32;99508.30;101904;1310;545303;-55
2022/08/04 02:13:32;;;;;;;18.20;12.50;;;;;;;18.79;97.46;99504.41;108131;1286;139263;-56
2022/08/04 02:16:04;;;;;;;16.50;12.50;;;;;;;18.78;97.47;99501.35;108034;1287;22584;-56
2022/08/04 02:18:36;;;;;;;17.40;13.10;;;;;;;18.77;97.57;99498.52;108736;1280;22710;-56
2022/08/04 02:21:03;;;;;;;15.80;14.20;;;;;;;18.76;97.76;99499.73;108558;1280;139238;-56
2022/08/04 02:23:37;;;;;;;15.60;13.70;;;;;;;18.76;97.81;99500.55;108595;1280;207962;-56
2022/08/04 02:26:05;;;;;;;14.30;12.50;;;;;;;18.76;97.91;99502.06;107187;1280;140855;-56
2022/08/04 02:28:50;;;;;;;15.40;12.40;;;;;;;18.77;98.01;99498.16;104835;1278;22815;-55
2022/08/04 02:31:22;;;;;;;18.10;13.30;;;;;;;18.78;98.09;99502.95;104723;1277;139192;-55
2022/08/04 02:34:08;;;;;;;14.00;12.50;;;;;;;18.78;98.15;99504.38;104771;1278;25530;-55
2022/08/04 02:36:37;;;;;;;17.00;13.90;;;;;;;18.79;98.11;99502.48;104755;1280;25369;-56
2022/08/04 02:39:06;;;;;;;14.20;12.80;;;;;;;18.78;98.32;99506.41;108803;1278;139124;-56
2022/08/04 02:41:33;;;;;;;16.50;12.40;;;;;;;18.77;98.31;99502.41;108871;1277;22447;-55
2022/08/04 02:44:01;;;;;;;15.30;13.40;;;;;;;18.78;98.42;99501.90;108901;1278;138210;-59
2022/08/04 02:46:28;;;;;;;18.00;12.70;;;;;;;18.79;98.45;99505.02;109048;1278;22582;-56
2022/08/04 02:48:56;;;;;;;14.70;12.80;;;;;;;18.79;98.37;99501.82;108889;1278;139129;-56
2022/08/04 02:51:46;;;;;;;19.70;13.80;;;;;;;18.79;98.36;99502.20;109027;1280;22452;-56
2022/08/04 02:54:14;;;;;;;15.20;13.70;;;;;;;18.77;98.33;99504.36;108953;1277;22563;-56
2022/08/04 02:56:56;;;;;;;16.20;14.50;;;;;;;18.74;98.21;99500.08;108975;1277;138418;-56
2022/08/04 02:59:24;;;;;;;14.10;12.80;;;;;;;18.71;98.30;99497.71;108972;1278;22464;-56
2022/08/04 03:01:54;;;;;;;15.50;13.70;;;;;;;18.69;98.36;99493.34;108963;1278;138937;-56
2022/08/04 03:04:39;;;;;;;14.90;12.70;;;;;;;18.68;98.36;99490.20;109137;1277;22459;-55
2022/08/04 03:07:14;;;;;;;16.10;13.00;;;;;;;18.68;98.67;99490.27;108937;1280;139846;-56
2022/08/04 03:10:14;;;;;;;16.00;13.80;;;;;;;18.68;98.69;99492.87;108987;1277;22970;-56
2022/08/04 03:12:58;;;;;;;16.80;14.10;;;;;;;18.68;98.89;99489.66;109023;1277;22567;-56
2022/08/04 03:15:48;;;;;;;17.20;13.60;;;;;;;18.68;99.00;99492.19;108861;1281;22530;-56
2022/08/04 03:18:15;;;;;;;16.10;14.40;;;;;;;18.68;98.95;99493.59;108754;1277;22541;-56
2022/08/04 03:21:14;;;;;;;21.90;15.40;;;;;;;18.68;99.15;99491.21;108954;1278;139710;-55
2022/08/04 03:23:56;;;;;;;18.00;15.60;;;;;;;18.68;99.28;99492.70;108776;1280;22640;-56
2022/08/04 03:26:26;;;;;;;25.10;16.40;;;;;;;18.67;99.35;99493.45;108914;1278;139691;-56
2022/08/04 03:29:11;;;;;;;18.10;15.60;;;;;;;18.66;99.39;99489.44;109017;1278;22495;-56
2022/08/04 03:31:56;;;;;;;20.90;15.50;;;;;;;18.65;99.48;99490.66;108695;1277;138327;-56
2022/08/04 03:34:35;;;;;;;19.20;17.10;;;;;;;18.65;99.69;99491.27;109010;1277;22958;-57
2022/08/04 03:37:05;;;;;;;18.50;16.10;;;;;;;18.65;99.82;99489.73;108817;1281;138380;-56
2022/08/04 03:40:09;;;;;;;26.40;16.90;;;;;;;18.66;99.87;99486.90;108948;1279;23602;-56
2022/08/04 03:42:57;;;;;;;19.80;15.60;;;;;;;18.67;99.98;99493.70;108990;1277;23425;-56
2022/08/04 03:45:39;;;;;;;20.00;16.70;;;;;;;18.69;100.00;99496.98;108983;1277;22441;-56
2022/08/04 03:48:18;;;;;;;20.70;16.90;;;;;;;18.69;100.00;99496.59;109020;1279;22759;-56
2022/08/04 03:50:44;;;;;;;19.70;15.90;;;;;;;18.69;100.00;99492.34;108849;1277;139021;-56
2022/08/04 03:53:29;;;;;;;17.90;16.10;;;;;;;18.70;100.00;99499.71;109035;1277;22464;-56
2022/08/04 03:56:17;;;;;;;18.70;15.70;;;;;;;18.69;100.00;99499.02;108634;1277;138403;-57
2022/08/04 03:58:47;;;;;;;20.90;15.90;;;;;;;18.70;100.00;99497.80;109046;1277;22475;-56
2022/08/04 04:01:19;;;;;;;18.60;16.70;;;;;;;18.71;100.00;99501.64;108868;1277;138525;-56
2022/08/04 04:03:53;;;;;;;19.40;16.20;;;;;;;18.71;100.00;99506.88;108944;1279;22567;-56
2022/08/04 04:06:39;;;;;;;19.30;15.50;;;;;;;18.72;100.00;99514.91;108772;1278;22525;-56
2022/08/04 04:09:24;;;;;;;17.70;15.80;;;;;;;18.73;100.00;99517.44;108926;1277;138161;-56
2022/08/04 04:12:33;;;;;;;17.00;15.20;;;;;;;18.74;100.00;99515.73;109008;1277;22456;-56
2022/08/04 04:15:28;;;;;;;17.10;15.20;;;;;;;18.75;100.00;99515.08;108715;1277;138805;-56
2022/08/04 04:18:00;;;;;;;18.00;14.70;;;;;;;18.78;100.00;99516.52;108963;1277;22554;-56
2022/08/04 04:20:39;;;;;;;25.20;15.30;;;;;;;18.81;100.00;99517.41;108718;1280;138251;-56
2022/08/04 04:23:24;;;;;;;17.60;15.40;;;;;;;18.83;100.00;99514.98;109081;1277;22517;-56
2022/08/04 04:25:59;;;;;;;20.50;15.70;;;;;;;18.85;100.00;99516.81;108719;1278;138207;-56
2022/08/04 04:28:54;;;;;;;18.40;16.10;;;;;;;18.88;100.00;99523.05;108801;1278;23396;-56
2022/08/04 04:31:52;;;;;;;16.40;14.70;;;;;;;18.90;100.00;99521.98;108618;1281;140272;-56
2022/08/04 04:34:57;;;;;;;19.40;17.30;;;;;;;18.94;100.00;99520.18;108999;1277;23504;-57
2022/08/04 04:37:55;;;;;;;19.10;16.90;;;;;;;18.97;100.00;99520.27;108168;1286;140757;-56
2022/08/04 04:40:47;;;;;;;24.40;15.80;;;;;;;18.99;100.00;99517.13;107206;1293;23684;-56
2022/08/04 04:43:24;;;;;;;21.00;16.20;;;;;;;19.02;100.00;99522.77;107144;1293;140240;-57
2022/08/04 04:46:15;;;;;;;16.50;14.70;;;;;;;19.04;100.00;99523.98;107152;1293;22555;-56
2022/08/04 04:48:50;;;;;;;17.60;15.80;;;;;;;19.04;99.96;99521.64;107195;1293;23180;-56
2022/08/04 04:51:27;;;;;;;16.60;14.90;;;;;;;19.06;99.90;99521.31;107333;1293;23236;-56
2022/08/04 04:54:00;;;;;;;21.80;15.10;;;;;;;19.10;99.87;99520.02;107113;1295;22533;-56
2022/08/04 04:56:28;;;;;;;23.50;15.80;;;;;;;19.13;99.72;99515.79;107174;1293;139204;-56
2022/08/04 04:58:55;;;;;;;19.00;16.10;;;;;;;19.16;99.58;99517.98;107298;1294;22519;-56
2022/08/04 05:01:33;;;;;;;18.50;15.70;;;;;;;19.17;99.24;99518.06;107114;1292;139824;-56
2022/08/04 05:04:14;;;;;;;17.70;15.10;;;;;;;19.19;99.22;99520.60;107304;1293;22558;-56
2022/08/04 05:06:47;;;;;;;20.50;16.20;;;;;;;19.22;99.08;99519.21;107470;1292;23165;-56
2022/08/04 05:09:32;;;;;;;18.20;16.30;;;;;;;19.24;98.99;99523.14;107335;1293;22293;-56
2022/08/04 05:12:25;;;;;;;24.70;17.20;;;;;;;19.27;98.94;99523.06;107384;1292;22608;-56
2022/08/04 05:15:12;;;;;;;17.60;15.70;;;;;;;19.31;98.62;99528.56;107736;1286;139086;-56
2022/08/04 05:17:39;;;;;;;19.10;16.00;;;;;;;19.32;98.41;99530.90;108426;1277;22458;-56
2022/08/04 05:20:09;;;;;;;18.70;15.50;;;;;;;19.33;98.14;99534.77;108844;1277;139336;-56
2022/08/04 05:22:44;;;;;;;19.50;15.90;;;;;;;19.34;97.92;99533.85;108878;1277;23475;-57
2022/08/04 05:25:20;;;;;;;19.20;15.90;;;;;;;19.33;97.52;99534.60;108779;1277;139832;-56
2022/08/04 05:27:55;;;;;;;19.40;17.40;;;;;;;19.31;97.46;99531.74;108705;1280;22562;-57
2022/08/04 05:30:22;;;;;;;22.40;15.90;;;;;;;19.31;97.40;99531.41;109004;1278;22562;-57
2022/08/04 05:32:54;;;;;;;22.20;16.90;;;;;;;19.33;97.48;99532.77;108748;1277;138758;-56
2022/08/04 05:35:32;;;;;;;21.90;18.20;;;;;;;19.35;97.36;99536.88;109028;1277;22463;-56
2022/08/04 05:38:20;;;;;;;17.40;15.70;;;;;;;19.37;97.35;99543.02;108718;1277;138442;-56
2022/08/04 05:40:47;;;;;;;17.70;15.90;;;;;;;19.40;97.29;99547.65;108825;1278;22461;-57
2022/08/04 05:43:13;;;;;;;18.70;16.80;;;;;;;19.44;97.38;99545.73;108903;1277;138391;-56
2022/08/04 05:45:40;;;;;;;25.40;17.60;;;;;;;19.48;97.32;99547.90;108612;1280;22510;-55
2022/08/04 05:48:07;;;;;;;19.10;17.10;;;;;;;19.52;97.12;99550.90;109040;1276;22480;-56
2022/08/04 05:50:34;;;;;;;19.30;17.30;;;;;;;19.54;96.80;99553.88;108849;1277;138396;-56
2022/08/04 05:53:01;;;;;;;21.30;17.40;;;;;;;19.56;96.52;99552.69;108673;1280;22434;-57
2022/08/04 05:55:28;;;;;;;53.40;23.50;;;;;;;19.57;96.28;99559.39;108653;1278;138509;-56
2022/08/04 05:58:15;;;;;;;22.10;17.30;;;;;;;19.56;95.83;99557.60;108921;1277;22463;-56
2022/08/04 06:00:42;;;;;;;22.80;17.50;;;;;;;19.53;95.66;99554.35;108945;1279;22358;-56
2022/08/04 06:03:18;;;;;;;21.00;17.40;;;;;;;19.51;95.66;99552.69;109045;1277;22412;-56
2022/08/04 06:05:45;;;;;;;30.30;18.70;;;;;;;19.50;95.72;99556.96;109010;1277;22532;-57
2022/08/04 06:08:12;;;;;;;23.70;18.70;;;;;;;19.50;95.62;99558.07;108715;1278;138420;-56
2022/08/04 06:10:39;;;;;;;24.60;17.70;;;;;;;19.49;95.53;99559.20;109009;1278;22583;-56
2022/08/04 06:13:09;;;;;;;21.70;17.60;;;;;;;19.47;95.40;99556.02;108623;1280;138945;-56
2022/08/04 06:15:56;;;;;;;18.70;16.60;;;;;;;19.50;95.63;99558.39;108804;1280;22646;-56
2022/08/04 06:18:22;;;;;;;30.40;19.10;;;;;;;19.52;95.72;99556.76;108969;1280;22605;-56
2022/08/04 06:21:10;;;;;;;24.10;17.70;;;;;;;19.57;95.56;99557.40;108660;1280;138770;-56
2022/08/04 06:23:42;;;;;;;21.80;17.20;;;;;;;19.61;95.49;99561.02;108632;1280;22467;-56
2022/08/04 06:26:27;;;;;;;18.20;16.30;;;;;;;19.66;95.13;99560.64;108837;1278;139152;-56
2022/08/04 06:28:53;;;;;;;22.10;16.80;;;;;;;19.70;94.96;99554.46;108956;1278;22462;-56
2022/08/04 06:34:26;;;;;;;18.30;16.50;;;;;;;19.87;94.88;99551.90;108937;1277;22596;-56
2022/08/04 06:36:53;;;;;;;18.30;15.60;;;;;;;19.96;94.75;99557.49;108896;1277;138461;-56
2022/08/04 06:39:21;;;;;;;21.40;17.10;;;;;;;20.07;94.58;99553.60;108979;1277;22453;-55
2022/08/04 06:41:49;;;;;;;18.80;16.70;;;;;;;20.17;94.02;99554.36;109055;1277;22445;-57
2022/08/04 06:44:37;;;;;;;21.30;15.50;;;;;;;20.29;92.98;99554.08;108848;1278;140262;-57
2022/08/04 06:47:04;;;;;;;21.40;16.30;;;;;;;20.36;92.30;99552.05;108735;1277;22657;-57
2022/08/04 06:49:33;;;;;;;29.50;17.40;;;;;;;20.42;91.43;99556.86;108808;1277;140007;-56
2022/08/04 06:52:20;;;;;;;24.50;17.50;;;;;;;20.46;91.03;99554.44;109024;1277;22243;-56
2022/08/04 06:54:47;;;;;;;17.80;16.00;;;;;;;20.51;90.96;99555.21;109015;1278;22487;-57
2022/08/04 06:57:16;;;;;;;18.70;16.30;;;;;;;20.56;90.39;99553.25;108939;1277;139990;-57
2022/08/04 06:59:43;;;;;;;18.50;16.00;;;;;;;20.60;89.81;99549.98;109006;1278;22472;-57
2022/08/04 07:02:13;;;;;;;20.20;16.80;;;;;;;20.63;89.78;99550.98;108907;1278;138580;-57
2022/08/04 07:04:41;;;;;;;19.10;17.20;;;;;;;20.65;89.26;99546.40;109018;1278;22569;-56
2022/08/04 07:07:08;;;;;;;18.30;16.40;;;;;;;20.66;88.88;99547.16;108781;1277;138829;-56
2022/08/04 07:09:34;;;;;;;17.40;15.60;;;;;;;20.67;88.81;99550.41;108966;1278;22501;-57
2022/08/04 07:12:01;;;;;;;18.90;16.90;;;;;;;20.66;88.78;99553.80;108954;1278;22470;-56
2022/08/04 07:14:29;;;;;;;22.80;17.30;;;;;;;20.66;88.35;99553.81;108727;1277;139239;-57
2022/08/04 07:16:56;;;;;;;18.70;16.40;;;;;;;20.65;88.23;99553.66;108989;1277;23401;-57
2022/08/04 07:19:23;;;;;;;18.90;16.90;;;;;;;20.63;87.93;99554.39;108874;1277;139643;-56
2022/08/04 07:21:49;;;;;;;18.10;16.00;;;;;;;20.62;87.86;99552.98;109062;1277;22438;-57
2022/08/04 07:24:37;;;;;;;18.30;16.40;;;;;;;20.63;88.05;99552.54;108839;1277;23677;-56
2022/08/04 07:27:06;;;;;;;21.70;16.30;;;;;;;20.65;88.19;99547.85;108908;1277;139346;-56
2022/08/04 07:29:36;;;;;;;18.80;15.90;;;;;;;20.71;88.22;99548.41;108939;1277;22717;-56
2022/08/04 07:32:04;;;;;;;25.20;16.10;;;;;;;20.78;87.96;99549.33;108971;1277;139683;-56
2022/08/04 07:34:31;;;;;;;18.40;15.20;;;;;;;20.86;87.68;99549.36;109190;1277;22424;-56
2022/08/04 07:37:00;;;;;;;18.00;16.10;;;;;;;20.94;87.48;99548.45;109013;1277;139641;-58
2022/08/04 07:39:30;;;;;;;16.10;14.50;;;;;;;21.01;87.05;99549.17;109080;1277;22566;-57
2022/08/04 07:42:00;;;;;;;20.60;17.00;;;;;;;21.06;86.35;99553.14;108990;1279;22280;-57
2022/08/04 07:44:31;;;;;;;18.90;16.30;;;;;;;21.09;85.59;99549.23;108850;1278;138396;-57
2022/08/04 07:47:04;;;;;;;21.00;16.30;;;;;;;21.09;85.19;99550.66;105951;1277;22919;-56
2022/08/04 07:49:31;;;;;;;21.60;15.70;;;;;;;21.09;85.24;99554.21;104564;1277;138564;-56
2022/08/04 07:52:18;;;;;;;18.40;16.40;;;;;;;21.11;85.27;99551.61;104730;1278;24167;-56
2022/08/04 07:54:45;;;;;;;19.20;17.20;;;;;;;21.13;85.34;99551.64;104786;1280;24955;-56
2022/08/04 07:57:11;;;;;;;19.10;15.10;;;;;;;21.16;85.14;99554.05;108489;1278;138940;-56
2022/08/04 07:59:58;;;;;;;19.60;15.70;;;;;;;21.17;84.84;99554.58;109243;1277;22473;-56
2022/08/04 08:02:25;;;;;;;20.30;17.90;;;;;;;21.19;84.71;99554.54;108947;1277;138292;-55
2022/08/04 08:04:52;;;;;;;19.60;16.10;;;;;;;21.22;84.73;99554.24;108760;1277;22483;-55
2022/08/04 08:07:19;;;;;;;20.00;15.70;;;;;;;21.23;84.35;99549.41;109020;1277;139644;-56
2022/08/04 08:09:46;;;;;;;18.50;16.40;;;;;;;21.27;84.01;99550.68;109215;1277;22492;-56
2022/08/04 08:12:13;;;;;;;19.80;15.90;;;;;;;21.30;83.76;99551.39;109042;1277;22454;-56
2022/08/04 08:15:00;;;;;;;24.50;17.40;;;;;;;21.35;83.51;99547.08;109035;1277;141080;-55
2022/08/04 08:17:27;;;;;;;19.10;16.40;;;;;;;21.40;83.61;99552.70;109050;1277;22519;-56
2022/08/04 08:19:54;;;;;;;19.80;15.70;;;;;;;21.46;83.15;99556.92;108920;1279;138476;-57
2022/08/04 08:22:20;;;;;;;20.40;15.00;;;;;;;21.49;82.83;99554.79;109196;1277;22443;-58
2022/08/04 08:24:47;;;;;;;16.70;15.10;;;;;;;21.53;82.45;99555.71;109015;1278;23256;-55
2022/08/04 08:27:14;;;;;;;15.50;14.00;;;;;;;21.56;82.31;99556.56;108923;1280;139031;-57
2022/08/04 08:29:41;;;;;;;19.50;14.60;;;;;;;21.59;82.39;99553.79;109125;1277;22462;-56
2022/08/04 08:32:09;;;;;;;17.10;15.50;;;;;;;21.64;82.56;99552.86;109025;1276;139367;-56
2022/08/04 08:34:36;;;;;;;17.90;15.80;;;;;;;21.69;82.23;99550.39;109045;1277;22452;-58
2022/08/04 08:37:20;;;;;;;15.10;13.60;;;;;;;21.74;81.90;99549.34;108905;1279;139614;-56
2022/08/04 08:40:03;;;;;;;16.90;14.90;;;;;;;21.80;81.69;99551.04;109024;1277;22406;-56
2022/08/04 08:43:07;;;;;;;16.70;14.30;;;;;;;21.85;81.18;99545.48;109008;1277;22461;-57
2022/08/04 08:45:57;;;;;;;17.60;14.20;;;;;;;21.91;80.56;99547.55;109118;1277;23546;-57
2022/08/04 08:48:49;;;;;;;15.90;13.80;;;;;;;21.93;80.29;99549.75;109116;1277;22534;-57
2022/08/04 08:51:23;;;;;;;17.80;12.90;;;;;;;21.94;80.22;99549.87;109024;1277;138476;-56
2022/08/04 08:54:12;;;;;;;16.80;13.80;;;;;;;21.95;79.68;99554.05;109041;1278;22553;-57
2022/08/04 08:56:44;;;;;;;13.20;11.90;;;;;;;21.93;79.10;99556.09;108996;1277;139445;-58
2022/08/04 08:59:45;;;;;;;15.00;12.80;;;;;;;21.90;78.61;99557.77;108936;1277;22467;-55
2022/08/04 09:02:27;;;;;;;16.90;13.10;;;;;;;21.88;78.22;99562.41;108968;1277;139556;-57
2022/08/04 09:04:54;;;;;;;14.20;12.70;;;;;;;21.87;77.51;99559.96;109068;1277;22467;-56
2022/08/04 09:07:58;;;;;;;18.40;13.30;;;;;;;21.87;77.20;99554.25;108986;1277;139187;-57
2022/08/04 09:10:45;;;;;;;14.30;12.90;;;;;;;21.93;77.70;99554.81;108993;1279;22571;-56
2022/08/04 09:13:16;;;;;;;15.30;13.40;;;;;;;22.01;77.49;99553.34;109026;1277;139055;-56
2022/08/04 09:16:19;;;;;;;16.60;13.10;;;;;;;22.08;77.08;99558.00;109027;1277;22916;-56
2022/08/04 09:18:59;;;;;;;15.10;13.30;;;;;;;22.13;76.63;99559.48;108961;1279;22547;-56
2022/08/04 09:21:32;;;;;;;16.40;12.10;;;;;;;22.16;76.90;99554.55;109068;1278;22468;-56
2022/08/04 09:24:13;;;;;;;16.50;12.50;;;;;;;22.21;76.57;99550.48;108956;1276;22701;-56
2022/08/04 09:27:14;;;;;;;15.50;12.60;;;;;;;22.30;76.50;99551.46;108933;1277;139753;-62
2022/08/04 09:29:54;;;;;;;13.50;12.30;;;;;;;22.40;76.22;99554.80;108935;1277;22552;-62
2022/08/04 09:32:40;;;;;;;16.60;12.60;;;;;;;22.48;75.07;99552.02;108893;1280;139090;-62
2022/08/04 09:35:25;;;;;;;14.70;11.70;;;;;;;22.50;74.55;99550.78;109060;1277;22543;-63
2022/08/04 09:38:15;;;;;;;13.20;11.70;;;;;;;22.51;74.42;99549.70;108872;1278;139295;-61
2022/08/04 09:40:54;;;;;;;13.10;11.90;;;;;;;22.54;74.05;99548.99;109105;1277;22638;-61
2022/08/04 09:43:30;;;;;;;14.50;11.30;;;;;;;22.59;73.63;99552.61;108964;1277;139920;-62
2022/08/04 09:46:22;;;;;;;14.80;11.50;;;;;;;22.66;73.66;99550.10;109189;1277;22462;-62
2022/08/04 09:49:01;;;;;;;12.60;11.30;;;;;;;22.74;73.27;99554.27;108738;1278;22553;-62
2022/08/04 09:51:46;;;;;;;18.30;12.30;;;;;;;22.80;72.84;99549.83;109050;1277;22578;-63
2022/08/04 09:54:32;;;;;;;13.90;12.10;;;;;;;22.84;72.73;99553.16;109065;1277;22457;-62
2022/08/04 09:57:19;;;;;;;14.50;11.50;;;;;;;22.86;72.72;99552.04;108981;1277;138580;-57
2022/08/04 10:00:08;;;;;;;20.10;11.80;;;;;;;22.89;73.02;99546.36;108357;1285;22507;-57
2022/08/04 10:02:47;;;;;;;18.60;12.80;;;;;;;22.97;73.28;99546.42;108160;1286;138464;-56
2022/08/04 10:05:15;;;;;;;;;;;;;;;23.08;72.83;99545.71;108267;1286;23575;-57
2022/08/04 10:08:03;;;;;;;12.70;11.40;;;;;;;23.15;72.86;99545.52;108111;1285;124628;-57
2022/08/04 10:11:00;;;;;;;14.20;11.30;;;;;;;23.24;72.28;99545.42;108269;1286;22288;-57
2022/08/04 10:14:04;;;;;;;17.80;10.40;;;;;;;23.31;72.01;99542.52;108266;1286;139122;-56
2022/08/04 10:16:40;;;;;;;14.70;10.60;;;;;;;23.39;71.68;99541.98;108198;1285;22435;-56
2022/08/04 10:19:28;;;;;;;14.10;11.40;;;;;;;23.45;70.74;99544.70;108293;1283;140314;-56
2022/08/04 10:22:18;;;;;;;11.90;10.70;;;;;;;23.48;70.52;99537.81;108387;1284;22495;-54
2022/08/04 10:25:00;;;;;;;12.40;11.20;;;;;;;23.48;70.45;99535.52;108156;1285;140350;-55
2022/08/04 10:27:37;;;;;;;12.40;9.70;;;;;;;23.51;70.45;99540.31;108415;1283;22521;-55
2022/08/04 10:30:10;;;;;;;;;;;;;;;23.55;70.36;99543.41;108338;1284;22644;-56
2022/08/04 10:32:48;;;;;;;11.20;10.10;;;;;;;23.59;70.42;99542.84;108234;1284;125750;-56
2022/08/04 10:35:22;;;;;;;13.00;10.10;;;;;;;23.66;70.44;99536.07;108041;1286;22500;-57
2022/08/04 10:38:12;;;;;;;17.10;10.20;;;;;;;23.74;70.33;99537.13;108576;1277;139998;-57
2022/08/04 10:40:46;;;;;;;14.40;9.60;;;;;;;23.81;69.68;99540.73;108942;1277;22913;-57
2022/08/04 10:43:14;;;;;;;12.90;9.80;;;;;;;23.86;69.09;99537.63;108757;1277;139563;-55
2022/08/04 10:45:50;;;;;;;12.70;9.80;;;;;;;23.87;68.56;99535.61;109025;1277;22444;-56
2022/08/04 10:49:02;;;;;;;10.60;9.50;;;;;;;23.87;68.51;99532.80;109089;1277;23543;-56
2022/08/04 10:51:54;;;;;;;10.60;9.70;;;;;;;23.82;68.65;99531.22;108441;1282;22641;-57
2022/08/04 10:54:36;;;;;;;13.00;9.60;;;;;;;23.82;68.93;99530.08;108122;1286;23213;-57
2022/08/04 10:57:04;;;;;;;11.60;9.40;;;;;;;23.78;68.75;99527.27;108365;1283;139279;-56
2022/08/04 10:59:36;;;;;;;11.80;9.10;;;;;;;23.73;69.02;99522.64;108451;1284;22433;-56
2022/08/04 11:02:45;;;;;;;11.20;10.10;;;;;;;23.70;69.53;99519.90;108396;1283;139071;-56
2022/08/04 11:05:49;;;;;;;11.10;9.80;;;;;;;23.72;69.35;99520.08;107846;1289;23452;-56
2022/08/04 11:08:28;;;;;;;10.90;9.70;;;;;;;23.76;68.80;99518.22;107686;1290;138544;-56
2022/08/04 11:11:15;;;;;;;12.20;10.30;;;;;;;23.78;69.31;99519.41;107458;1290;23328;-56
2022/08/04 11:13:46;;;;;;;12.80;9.80;;;;;;;23.82;68.87;99509.74;107583;1290;138479;-56
2022/08/04 11:16:18;;;;;;;11.30;9.20;;;;;;;23.84;69.00;99506.80;107732;1290;22461;-57
2022/08/04 11:19:07;;;;;;;11.40;10.30;;;;;;;23.88;69.76;99507.16;107497;1290;22442;-57
2022/08/04 11:21:36;;;;;;;10.00;9.00;;;;;;;23.97;69.75;99510.17;107821;1290;23181;-56
2022/08/04 11:24:24;;;;;;;10.90;9.80;;;;;;;24.07;68.56;99510.58;107675;1290;22555;-56
2022/08/04 11:26:59;;;;;;;12.30;9.50;;;;;;;24.11;68.09;99513.65;107641;1290;138275;-56
2022/08/04 11:29:44;;;;;;;12.60;9.90;;;;;;;24.12;68.51;99509.32;107960;1286;23364;-56
2022/08/04 11:32:19;;;;;;;12.90;9.70;;;;;;;24.11;68.83;99511.89;108149;1286;139847;-56
2022/08/04 11:34:55;;;;;;;11.40;8.60;;;;;;;24.10;68.43;99514.33;107949;1285;23504;-56
2022/08/04 11:37:27;;;;;;;13.10;9.00;;;;;;;24.07;68.18;99513.07;107938;1286;140538;-56
2022/08/04 11:40:08;;;;;;;10.70;9.70;;;;;;;24.04;68.30;99513.43;108103;1286;23291;-56
2022/08/04 11:42:46;;;;;;;10.20;8.60;;;;;;;24.00;68.69;99505.56;108746;1278;22500;-56
2022/08/04 11:45:18;;;;;;;10.30;8.60;;;;;;;23.94;68.55;99502.86;108804;1277;138512;-56
2022/08/04 11:47:52;;;;;;;10.10;9.10;;;;;;;23.91;68.87;99501.73;108950;1278;22464;-56
2022/08/04 11:50:33;;;;;;;12.20;10.10;;;;;;;23.89;68.90;99500.70;108715;1277;139479;-58
2022/08/04 11:53:00;;;;;;;13.20;9.30;;;;;;;23.90;69.23;99493.71;109138;1276;22486;-55
2022/08/04 11:55:27;;;;;;;12.80;9.90;;;;;;;23.91;69.57;99491.47;108792;1277;138463;-56
2022/08/04 11:57:54;;;;;;;12.40;10.70;;;;;;;23.94;69.40;99491.86;109025;1277;22473;-56
2022/08/04 12:00:21;;;;;;;12.30;11.10;;;;;;;24.01;69.38;99484.75;109042;1277;22476;-57